Create Custom Reports and Graphics: Custom Report

Latest 15 Minute Observations

Map

15 Minute Data

Latest Observation

38 Stations

15 Minute Data | America/Los_Angeles
as of 6/14/24 4:29 AM PDT
Station Date Time Temp (°F) RH (%) Dew Pt (°F) Wind Spd (mph) Wind Dir (°) Wind Gust (mph) Latest Rain (In) Daily Rain (In) Daily Min Temp (°F) Daily Max Temp (°F) Daily Max Wind (mph)
Upper Lake 6/14/24 0415 51.8   1.1 80   12 45.8   2.5 1.3 SE | 129 4.2   0.0 0.00 0.00 51.1   0.6 64.6   6.2 13.9   7.5
Scotts Valley 6/14/24 0415 44.4   1.2 88   3 41.0   2.0 0.4 W | 262 1.8   1.8 0.00 0.00 44.3   1.2 52.9   0.7 3.0   1.1
Scotts Valley-South (Bella Vista) 6/14/24 0415 48.6   3.9 70   0 39.4   3.6 0.1 SSW | 193 2.1   0.3 0.00 0.00 48.3   3.5 56.2   0.6 2.9   1.4
Kelseyville 6/14/24 0415 49.6   2.4 75   6 42.1   4.3 1.0 S | 179 2.0   2.0 0.00 0.00 49.3   2.5 56.8   3.1 5.3   2.4
Kelseyville Remote 6/14/24 0415 50.7   2.4 58   7 36.4   5.3 - - - 0.00 0.00 50.4   2.7 59.8   1.8 -
Kelseyville (Clark Drive) 6/14/24 0415 46.7   3.6 - - - - - 0.00 0.00 46.2   3.5 55.6   1.2 -
Kelsey Bench (Oaklea) 6/14/24 0415 54.5   1.0 47   17 34.6   8.8 3.2 S | 170 4.3   0.8 0.00 0.00 53.6   1.7 60.8   1.2 6.9   1.5
Smith Lane (Kelseyville-South) 6/14/24 0415 47.1   2.8 75   6 39.7   4.8 1.3 SSE | 148 2.6   0.0 0.00 0.00 47.1   2.8 53.8   3.0 4.3   0.0
Bell Hill-West 6/14/24 0415 51.3   1.5 70   14 41.7   6.2 1.5 S | 174 3.4   0.3 0.00 0.00 51.2   1.3 59.4   1.8 4.1   0.7
Wight Way (Adobe Creek) 6/14/24 0400 48.7   1.3 60   23 35.3   9.7 2.5 SE | 140 3.6   0.6 0.00 0.00 48.7   1.1 54.3   0.6 4.4   0.2
High Valley Ridgeline (Brassfield) 6/12/24 1845 84.5   1.7 32   1 51.3   0.9 10.5 SW | 236 17.0   0.5 0.00 0.00 68.1   3.1 91.9   1.2 19.9   0.4
Ridgeline Top (Brassfield) 6/12/24 1845 85.4   1.6 - - - - - - - 67.9   2.7 95.8   0.5 -
Ridgeline Low (Brassfield) 6/12/24 1845 85.8   1.3 - - - - - - - 63.6   2.0 93.2   0.7 -
Long Valley (Shannon) 6/14/24 0415 46.4   3.2 - - 0.7 NNE | 32 1.6   0.1 0.00 0.00 45.9   3.1 55.0   0.1 3.6   0.2
High Valley Winery 6/12/24 1845 87.0   2.6 29   3 51.3   0.7 7.5 WSW | 257 15.7   0.4 0.00 0.00 51.3   2.7 95.4   0.1 19.9   1.0
Round Mtn Rd. 6/14/24 0415 56.7   0.8 - - - - - - - 52.6   4.9 62.3   3.1 -
Circle O 6/14/24 0415 52.4   4.0 - - - - - - - 51.8   4.4 61.6   1.8 -
Robertsbridge Vineyards 6/14/24 0415 48.1   1.4 65   16 36.7   7.0 - - - - - 47.5   1.8 52.1   1.5 -
Urgency Vineyard 6/14/24 0415 58.5   3.1 35   30 30.9   12.9 3.3 SW | 217 4.6   1.8 0.00 0.00 58.5   3.1 64.0   3.4 8.4   2.3
Red Hills (Beckstoffer) 6/14/24 0415 66.0   6.8 23   33 27.1   16.7 - - - 0.00 0.00 64.5   7.0 68.4   3.0 -
Winters (Shannon) 6/14/24 0415 66.2   20.1 18   69 21.9   20.5 4.7 WSW | 257 9.9   8.5 0.00 0.00 63.8   17.8 70.6   14.8 14.3   11.6
Secret Pond (Shannon) 6/14/24 0415 66.5   16.3 17   62 20.7   23.4 5.1 NW | 317 8.8   7.7 0.00 0.00 65.7   15.7 69.9   2.1 14.6   10.1
Rolling Knolls (Shannon) 6/14/24 0415 52.8   4.1 54   29 36.4   7.0 1.2 SW | 221 3.7   1.7 0.00 0.00 52.8   4.1 63.8   8.8 5.0   1.5
Lower Lake 6/14/24 0415 58.6   4.1 38   41 33.0   15.2 1.3 SW | 230 3.4   0.1 0.00 0.00 58.6   4.1 66.1   3.6 5.2   1.4
Adamson Ranch 6/4/24 1415 91.6   16.3 32   3 57.5   12.0 2.6 N | 356 10.5   1.3 0.00 0.00 49.8   12.2 91.8   16.3 11.8   3.7
Middletown (Diamond D) 6/14/24 0415 49.3   3.1 80   10 43.3   6.1 0.6 N | 355 2.3   1.2 0.00 0.00 48.9   3.5 54.7   3.8 4.8   0.4
Middletown-West (Atlas VM) 6/14/24 0415 43.2   3.7 83   12 38.6   7.1 0.5 SW | 230 1.9   0.1 0.00 0.00 43.2   2.9 52.2   2.2 3.9   1.4
Middletown-South 6/14/24 0415 47.7   3.5 78   11 41.3   7.0 0.6 S | 190 2.4   0.8 0.00 0.00 47.3   3.6 53.6   3.5 3.4   1.5
Jim Davis (Langtry) 6/14/24 0415 54.1   3.2 82   5 48.6   1.4 0.3 NNE | 24 1.5   0.4 0.00 0.00 53.5   3.6 60.2   1.8 5.0   1.1
Napa Basin 6/14/24 0415 45.5   4.1 96   3 44.3   3.1 0.3 S | 174 1.5   0.0 0.00 0.00 45.2   4.3 57.1   2.7 3.9   0.7
Lower Bohn 6/14/24 0415 44.6   5.6 96   3 43.5   4.7 0.2 NNW | 335 1.2   0.4 0.00 0.00 44.3   5.3 51.4   5.6 3.5   1.0
Upper Bohn-North 6/14/24 0415 50.3   2.7 88   2 47.0   2.0 1.0 SE | 142 1.8   0.7 0.00 0.00 49.7   2.9 59.0   1.1 -
Upper Bohn-South 6/14/24 0415 50.0   3.6 - - 0.2 NNW | 337 1.1   0.9 0.00 0.00 49.7   3.4 55.0   3.1 -
Morgan Valley 6/14/24 0415 68.5   0.0 28   16 34.5   11.4 12.5 WNW | 294 15.4   6.6 0.00 0.00 67.4   4.2 71.6   0.9 17.0   8.2
Mine Pit North 6/14/24 0415 59.7   1.5 66   9 48.3   2.0 3.7 SW | 232 6.3   2.6 - - 58.8   1.1 65.0   2.8 10.1   2.2
Mine Pit South 6/14/24 0415 59.7   1.7 67   6 48.6   0.9 2.2 SE | 142 4.1   1.1 0.00 0.00 58.9   1.8 62.4   1.4 11.6   3.0
Cow Mountain 6/14/24 0415 62.9   4.9 - - 13.9 WNW | 284 24.6   1.8 0.00 0.00 60.4   6.9 64.2   6.6 27.8   4.4
Ukiah-SE (Ruddick) 6/14/24 0415 49.0   1.2 83   2 44.0   1.7 0.1 ESE | 115 1.4   0.2 0.00 0.00 48.2   1.5 53.8   1.0 2.6   0.5
Max     68.5 96 48.6 13.9 - 24.6 0.00 0.00 67.4 71.6 27.8
Avg     53.0 64 38.7 2.4 - 4.5 0.00 - - - -
Min     43.2 17 20.7 0.1 - 1.1 0.00 0.00 43.2 51.4 2.6

Yesterday's Daily Summary

38 Stations

Daily Data | America/Los_Angeles
as of 6/14/24 4:29 AM PDT
Station Date Daily Max Temp (°F) Daily Min Temp (°F) Daily Rain (In) Season Precip (In) Wind Spd (mph) Daily Max Wind (mph) Time of Max Wind Max Wind Dir (°) Dew Pt (°F) Max RH (%) Min RH (%) Daily Solar Rad (Cal/cm2) Daily ETo (in) 7 Day ETo (in) Chilling <=45F (hrs) Chilling <=45F Seas (hrs) Hrs 70-85F (hrs) Hrs > 95F (hrs) Powdery Mildew Stress (pts) Daily Leaf Wet (Hrs) GDDs (DL) Seas GDDs (DL) MinBV Day (V)
Upper Lake 6/13/24 91.2   5.1 47.7   4.5 0.00 38.10 2.5 15.2   0.4 1433 WSW | 240 49.2   5.1 95 23 - - - 0.0 - 4.89 0.00 50 0.0 22.2 866 12.3
Scotts Valley 6/13/24 91.7   4.8 44.0   3.5 0.00 32.11 1.8 20.2   4.9 1721 W | 263 45.8   5.0 97 13 - - - 1.8 - 3.02 0.00 0 0.0 20.4 862 12.4
Scotts Valley-South (Bella Vista) 6/13/24 92.6   2.8 49.8   3.4 0.00 33.32 2.8 18.2   5.0 1808 WNW | 296 41.6   6.8 78 10 681 0.254 1.70 0.0 - 3.52 0.00 20 - 22.5 882 12.6
Kelseyville 6/13/24 91.6   4.6 49.5   2.5 0.00 28.50 3.0 16.2   0.4 1656 WSW | 246 47.5   4.8 85 22 741 0.265 1.79 0.0 - 3.30 0.00 0 0.0 21.6 893 12.6
Kelseyville Remote 6/13/24 94.2   3.3 50.4   3.0 0.00 29.49 - - - - 41.9   5.6 74 10 - - - 0.0 - 4.23 0.00 0 - 24.0 974 12.7
Kelseyville (Clark Drive) 6/13/24 93.0   4.5 48.3   2.0 0.00 29.27 - - - - - - - - - - 0.0 - 2.66 0.00 0 - 21.8 894 12.7
Kelsey Bench (Oaklea) 6/13/24 90.5   4.3 53.3   2.0 0.00 33.07 4.4 15.3   0.4 1453 WSW | 237 43.2   5.6 70 14 773 0.289 1.94 0.0 - 4.08 0.00 30 - 22.7 919 12.7
Smith Lane (Kelseyville-South) 6/13/24 91.6   5.5 47.8   2.8 0.00 30.62 3.1 16.0   2.2 1552 W | 261 39.8   6.1 - - - - - 0.0 - 3.47 0.00 0 0.0 21.8 922 12.7
Bell Hill-West 6/13/24 88.8   5.5 50.8   2.5 0.00 32.03 3.9 15.8   0.0 1506 SW | 236 49.9   4.8 90 26 783 0.284 1.93 0.0 - 4.42 0.00 50 - 21.9 885 12.6
Wight Way (Adobe Creek) 6/13/24 93.3   3.6 47.3   2.1 0.00 41.01 3.1 15.3   1.4 1734 NNW | 338 45.3   6.6 90 19 735 0.273 1.82 0.0 - 3.22 0.00 0 - 23.1 920 12.6
High Valley Ridgeline (Brassfield) 6/11/24 93.1   3.4 69.9   5.3 0.00 33.37 6.2 19.5   1.2 1828 WSW | 255 51.1   0.4 53 21 727 0.308 2.04 0.0 - 17.55 0.00 100 - 28.9 857 12.6
Ridgeline Top (Brassfield) 6/11/24 95.3   2.5 68.9   4.0 - - - - - - - - - - - - 0.0 - 16.33 0.08 100 - 30.2 897 12.8
Ridgeline Low (Brassfield) 6/11/24 93.9   3.3 65.6   6.9 - - - - - - - - - - - - 0.0 - 9.43 0.00 100 - 29.5 906 12.8
Long Valley (Shannon) 6/13/24 97.8   3.6 48.5   1.9 0.00 42.23 2.5 18.5   4.1 1425 WNW | 302 - - 3 670 0.256 1.77 0.0 - 2.70 1.64 10 - 23.1 950 12.8
High Valley Winery 6/11/24 95.5   3.3 54.0   4.1 0.00 35.15 4.0 18.9   1.2 1823 WNW | 298 52.1   0.7 89 18 - - - 0.0 - 3.72 0.27 70 - 26.9 850 12.6
Round Mtn Rd. 6/13/24 92.9   3.6 55.2   0.3 - - - - - - - - - - - - 0.0 - 5.37 0.00 0 - 24.3 914 12.6
Circle O 6/13/24 90.4   4.1 53.4   0.8 - - - - - - - - - - - - 0.0 - 4.90 0.00 20 - 22.9 850 12.7
Robertsbridge Vineyards 6/13/24 93.7   4.9 47.8   3.5 - - - - - - 42.9   7.3 86 15 - - - 0.0 - 2.65 0.00 0 - 21.1 - 12.5
Urgency Vineyard 6/13/24 94.0   2.8 53.6   0.5 0.00 37.04 2.5 15.7   4.0 1703 NW | 310 41.3   7.9 74 9 747 0.266 1.83 0.0 - 3.67 0.00 0 - 25.0 982 12.6
Red Hills (Beckstoffer) 6/13/24 93.4   4.6 50.9   1.7 0.00 38.54 - - - - 41.1   7.7 81 9 - - - 0.0 - 5.95 0.00 90 - 24.7 985 12.6
Winters (Shannon) 6/13/24 92.2   3.9 45.5   3.6 0.00 44.32 3.3 18.1   3.8 1651 W | 273 39.2   7.9 90 11 728 0.277 1.84 0.0 - 4.92 0.00 60 - 22.5 875 12.8
Secret Pond (Shannon) 6/13/24 92.3   2.9 50.0   4.4 0.00 46.71 4.2 18.7   4.5 1916 NW | 304 38.7   8.1 81 13 683 0.281 1.83 0.0 - 7.31 0.00 100 - 24.0 907 12.9
Rolling Knolls (Shannon) 6/13/24 93.2   3.4 47.2   7.2 0.00 38.22 2.7 21.6   5.1 1805 WSW | 248 43.2   8.3 90 13 646 0.254 1.60 0.0 - 4.02 0.00 50 - 22.6 943 12.8
Lower Lake 6/13/24 93.4   3.4 54.2   4.7 0.00 36.92 4.5 22.2   6.7 1859 WNW | 286 44.1   7.2 80 12 - - - 0.0 - 5.32 0.00 20 - 25.2 1,034 12.6
Adamson Ranch 6/3/24 78.3   6.4 54.8   0.8 0.00 33.54 2.1 15.6   2.8 1314 W | 273 52.0   1.9 85 26 - - - 0.0 - 9.11 0.00 100 - 17.4 716 12.6
Middletown (Diamond D) 6/13/24 91.0   5.0 50.8   4.1 0.02 41.10 3.1 16.0   6.0 1507 N | 355 52.2   2.8 92 29 319 0.144 1.08 0.0 - 3.70 0.00 40 - 21.0 1,017 12.6
Middletown-West (Atlas VM) 6/13/24 92.9   4.7 45.6   4.0 0.00 49.32 4.5 23.4   1.0 1458 SW | 229 50.2   2.6 96 27 - - - 0.0 - 3.10 0.00 0 - 20.5 984 12.5
Middletown-South 6/13/24 91.6   4.4 49.6   4.3 0.00 57.91 2.0 16.9   3.7 1517 SW | 224 49.6   2.8 93 21 - - - 0.0 - 3.32 0.00 60 0.0 20.4 966 12.4
Jim Davis (Langtry) 6/13/24 89.0   8.4 53.3   8.5 0.00 30.52 3.6 15.6   1.6 1526 ESE | 108 53.5   0.5 86 31 717 0.247 1.87 0.0 - 3.88 0.00 20 - 21.7 1,112 12.6
Napa Basin 6/13/24 89.3   9.1 47.0   5.2 0.00 27.03 3.6 14.6   0.3 1726 SSE | 163 53.7   1.7 98 34 511 0.206 1.49 0.0 - 3.76 0.00 0 - 20.1 1,053 12.6
Lower Bohn 6/13/24 90.3   9.2 47.3   4.0 0.00 34.63 3.1 14.2   1.6 1425 SSE | 153 53.2   2.9 96 32 664 0.243 1.76 0.0 - 4.41 0.00 0 - 19.2 1,021 12.6
Upper Bohn-North 6/13/24 90.9   8.8 51.2   8.4 0.00 26.73 2.7 14.5   2.8 1423 ESE | 115 51.6   0.4 90 28 664 0.235 - 0.0 1,099 3.38 0.00 0 - 20.8 1,112 12.2
Upper Bohn-South 6/13/24 91.4   7.9 51.1   6.8 0.00 28.58 1.5 13.2   5.3 1535 ESE | 120 - 55 33 590 0.199 - 0.0 1,062 3.80 0.00 0 - 20.3 1,123 11.9
Morgan Valley 6/13/24 85.4   8.0 63.1   7.5 0.00 33.45 5.2 22.0   5.5 2129 W | 278 49.9   1.9 67 21 778 0.281 1.97 0.0 - 17.51 0.00 100 - 25.5 1,017 12.8
Mine Pit North 6/13/24 90.4   7.7 56.9   4.6 - - 6.6 19.4   1.9 1453 SSW | 205 53.3   0.0 79 21 - - - - - - - - - - - 12.4
Mine Pit South 6/13/24 90.4   8.1 57.2   3.5 0.00 32.42 4.5 15.6   6.7 2136 SW | 231 50.3   0.7 75 21 - - - - - - - - - - - 12.3
Cow Mountain 6/13/24 76.1   6.3 62.6   4.3 0.00 46.77 14.5 36.8   9.4 1754 W | 268 - - - - - - 0.0 - - - - - - - 12.8
Ukiah-SE (Ruddick) 6/13/24 91.4   3.1 48.5   3.2 0.00 38.97 3.9 20.3   2.4 1559 NNW | 336 46.1   3.9 90 15 720 0.264 1.84 0.0 - 4.05 0.00 60 5.2 18.4 883 12.9
Max   97.8 63.1 0.02 57.91 14.5 36.8 - - 53.7 98 34 783 0.289 1.97 1.8 - 17.51 1.64 - 5.2 25.5 - 12.9
Avg   - - - - 3.8 - - - 46.6 - - - - - 0.1 - 4.48 0.05 - - 22.2 - -
Min   76.1 44.0 0.00 26.73 1.5 13.2 - - 38.7 55 3 319 0.144 1.08 0.0 - 2.65 0.00 - 0.0 18.4 - 11.9